Mariner Of The Seas — C6FV9 — position and weather

sailwx.info

Track history (hours):
 
Tides and Currents Weather Stations Pressure Air Temp Water Temp Dewpoint Dewpoint Depression Visibility Wind Speed Wind Dir Waves Ship Positions

Mariner Of The Seas

Operator: Royal Caribbean Cruises Ltd

Last reported at 2017-Jun-25 15:07 UTC. Time now 2017-Jun-26 12:04 UTC.
Position N 31°08' E 123°07'.

Type: Passenger vessel. MMSI: 311493000.

Date/timePositionNaut miles runAvg speedWind from/ knotsBaromVisibWave heightAir tempDewpointWater temp
2017-Jun-25 15:07N 31°08' E 123°07'213.6
2017-Jun-25 14:57N 31°07' E 123°05'715.0
2017-Jun-25 14:30N 31°04' E 122°58'1413.8
2017-Jun-25 13:30N 31°05' E 122°42'1012.8
2017-Jun-25 12:45N 31°05' E 122°31'2 9.9
2017-Jun-25 12:31N 31°06' E 122°28'5 9.3
2017-Jun-25 12:00N 31°06' E 122°22'612.3
2017-Jun-25 11:31N 31°08' E 122°16'714.2
2017-Jun-25 11:00N 31°12' E 122°09'714.5
2017-Jun-25 10:31N 31°15' E 122°01'815.0
2017-Jun-25 10:00N 31°16' E 121°53'714.9
2017-Jun-25 09:30N 31°19' E 121°44'612.5
2017-Jun-25 09:00N 31°22' E 121°38'612.0
2017-Jun-25 08:30N 31°25' E 121°32'1 2.6
2017-Jun-25 07:58N 31°25' E 121°30'0 0.0
2017-Jun-25 07:28N 31°25' E 121°30'0 0.0
2017-Jun-25 06:52N 31°25' E 121°30'0 0.0
2017-Jun-25 06:25N 31°25' E 121°30'0 0.0
2017-Jun-25 05:58N 31°25' E 121°30'0 0.0
2017-Jun-25 05:22N 31°25' E 121°30'0 0.0
2017-Jun-25 04:58N 31°25' E 121°30'0 0.0
2017-Jun-25 04:25N 31°25' E 121°30'0 0.0
2017-Jun-25 03:55N 31°25' E 121°30'0 0.0
2017-Jun-25 03:25N 31°25' E 121°30'0 0.0
2017-Jun-25 02:55N 31°25' E 121°30'0 0.0
2017-Jun-25 02:28N 31°25' E 121°30'0 0.0
2017-Jun-25 01:58N 31°25' E 121°30'0 0.0
2017-Jun-25 01:16N 31°25' E 121°30'0 0.0
2017-Jun-25 00:58N 31°25' E 121°30'0 0.0
2017-Jun-25 00:16N 31°25' E 121°30'0 0.0
2017-Jun-24 23:58N 31°25' E 121°30'0 0.0
2017-Jun-24 23:25N 31°25' E 121°30'0 0.0
2017-Jun-24 22:55N 31°25' E 121°30'0 0.0
2017-Jun-24 22:28N 31°25' E 121°30'0 0.0
2017-Jun-24 21:55N 31°25' E 121°30'0 0.0
2017-Jun-24 21:25N 31°25' E 121°30'0 0.0
2017-Jun-24 20:55N 31°25' E 121°30'0 0.0
2017-Jun-24 20:25N 31°25' E 121°30'0 0.0
2017-Jun-24 19:55N 31°25' E 121°30'0 0.0
2017-Jun-24 19:28N 31°25' E 121°30'0 0.0
2017-Jun-24 18:58N 31°25' E 121°30'0 0.0
2017-Jun-24 18:28N 31°25' E 121°30'0 0.1
2017-Jun-24 18:01N 31°25' E 121°30'3 5.8
2017-Jun-24 17:30N 31°24' E 121°33'4 8.7
2017-Jun-24 17:00N 31°22' E 121°38'510.3
2017-Jun-24 16:30N 31°19' E 121°43'510.8
2017-Jun-24 16:01N 31°17' E 121°49'611.0
2017-Jun-24 15:30N 31°16' E 121°55'611.0
2017-Jun-24 15:00N 31°15' E 122°02'1111.1
2017-Jun-24 14:00N 31°09' E 122°13'612.5
2017-Jun-24 13:29N 31°06' E 122°19'612.2
2017-Jun-24 13:00N 31°07' E 122°26'  
2017-Jun-21 17:03N 31°05' E 122°35'111.5
2017-Jun-21 16:59N 31°05' E 122°34'612.5
2017-Jun-21 16:30N 31°05' E 122°27'612.3
2017-Jun-21 16:00N 31°06' E 122°20'714.5
2017-Jun-21 15:30N 31°09' E 122°13'714.5
2017-Jun-21 15:00N 31°14' E 122°06'713.9
2017-Jun-21 14:30N 31°15' E 121°58'1212.0
2017-Jun-21 13:31N 31°19' E 121°45'510.1
2017-Jun-21 13:00N 31°21' E 121°39'510.2
2017-Jun-21 12:30N 31°23' E 121°34'4 7.2
2017-Jun-21 12:00N 31°25' E 121°30'0 0.2
2017-Jun-21 11:28N 31°25' E 121°30'0 0.0
2017-Jun-21 10:58N 31°25' E 121°30'0 0.0
2017-Jun-21 10:25N 31°25' E 121°30'0 0.0
2017-Jun-21 09:55N 31°25' E 121°30'0 0.0
2017-Jun-21 09:28N 31°25' E 121°30'0 0.0
2017-Jun-21 08:58N 31°25' E 121°30'0 0.0
2017-Jun-21 08:28N 31°25' E 121°30'0 0.0
2017-Jun-21 07:58N 31°25' E 121°30'0 0.0
2017-Jun-21 07:28N 31°25' E 121°30'0 0.0
2017-Jun-21 06:58N 31°25' E 121°30'0 0.0
2017-Jun-21 06:28N 31°25' E 121°30'0 0.0
2017-Jun-21 05:58N 31°25' E 121°30'0 0.0
2017-Jun-21 05:22N 31°25' E 121°30'0 0.0
2017-Jun-21 04:58N 31°25' E 121°30'0 0.0
2017-Jun-21 04:28N 31°25' E 121°30'0 0.0
2017-Jun-21 03:58N 31°25' E 121°30'0 0.0
2017-Jun-21 03:25N 31°25' E 121°30'0 0.0
2017-Jun-21 02:55N 31°25' E 121°30'0 0.0
2017-Jun-21 02:28N 31°25' E 121°30'0 0.0
2017-Jun-21 01:58N 31°25' E 121°30'0 0.0
2017-Jun-21 01:28N 31°25' E 121°30'0 0.0
2017-Jun-21 00:58N 31°25' E 121°30'0 0.0
2017-Jun-21 00:28N 31°25' E 121°30'0 0.0
2017-Jun-20 23:58N 31°25' E 121°30'0 0.0
2017-Jun-20 23:28N 31°25' E 121°30'0 0.0
2017-Jun-20 22:55N 31°25' E 121°30'0 0.1
2017-Jun-20 22:30N 31°25' E 121°30'3 6.5
2017-Jun-20 22:00N 31°24' E 121°34'5 9.9
2017-Jun-20 21:30N 31°21' E 121°39'510.4
2017-Jun-20 21:00N 31°19' E 121°44'611.2
2017-Jun-20 20:30N 31°17' E 121°50'611.2
2017-Jun-20 20:00N 31°15' E 121°57'611.5
2017-Jun-20 19:30N 31°14' E 122°03'611.5
2017-Jun-20 19:00N 31°12' E 122°09'611.5
2017-Jun-20 18:30N 31°08' E 122°15'1510.4
2017-Jun-20 17:06N 31°07' E 122°32'113.2
2017-Jun-20 16:59N 31°07' E 122°33'  
2017-Jun-17 00:51N 31°42' E 125°06'5311.5
2017-Jun-16 20:14N 31°28' E 124°06'511.5
2017-Jun-16 19:46N 31°27' E 123°60'311.6
2017-Jun-16 19:29N 31°26' E 123°56'3011.5
2017-Jun-16 16:50N 31°17' E 123°22'711.2
2017-Jun-16 16:12N 31°17' E 123°13'3511.6
2017-Jun-16 13:09N 31°05' E 122°35'411.5
2017-Jun-16 12:48N 31°05' E 122°30'3 9.6
2017-Jun-16 12:30N 31°05' E 122°27'510.4
2017-Jun-16 12:01N 31°06' E 122°21'714.2
2017-Jun-16 11:30N 31°09' E 122°13'815.2
2017-Jun-16 11:00N 31°14' E 122°06'815.2
2017-Jun-16 10:31N 31°15' E 121°57'815.0
2017-Jun-16 10:00N 31°17' E 121°49'714.2
2017-Jun-16 09:31N 31°20' E 121°41'612.2
2017-Jun-16 09:00N 31°23' E 121°35'4 8.7
2017-Jun-16 08:30N 31°25' E 121°30'0 0.2
2017-Jun-16 07:56N 31°25' E 121°30'0 0.0
2017-Jun-16 07:29N 31°25' E 121°30'0 0.0
2017-Jun-16 06:59N 31°25' E 121°30'0 0.0
2017-Jun-16 06:23N 31°25' E 121°30'0 0.0
2017-Jun-16 05:56N 31°25' E 121°30'0 0.0
2017-Jun-16 05:26N 31°25' E 121°30'0 0.0
2017-Jun-16 04:59N 31°25' E 121°30'0 0.0
2017-Jun-16 04:29N 31°25' E 121°30'0 0.0
2017-Jun-16 03:59N 31°25' E 121°30'0 0.0
2017-Jun-16 03:29N 31°25' E 121°30'0 0.0
2017-Jun-16 02:56N 31°25' E 121°30'0 0.0
2017-Jun-16 02:29N 31°25' E 121°30'0 0.0
2017-Jun-16 01:59N 31°25' E 121°30'0 0.0
2017-Jun-16 01:29N 31°25' E 121°30'0 0.0
2017-Jun-16 00:59N 31°25' E 121°30'0 0.0
2017-Jun-16 00:29N 31°25' E 121°30'0 0.0
2017-Jun-15 23:59N 31°25' E 121°30'0 0.0
2017-Jun-15 23:23N 31°25' E 121°30'0 0.0
2017-Jun-15 22:59N 31°25' E 121°30'0 0.0
2017-Jun-15 22:23N 31°25' E 121°30'0 0.0
2017-Jun-15 21:59N 31°25' E 121°30'0 0.0
2017-Jun-15 21:26N 31°25' E 121°30'0 0.0
2017-Jun-15 20:59N 31°25' E 121°30'0 0.0
2017-Jun-15 20:26N 31°25' E 121°30'0 0.0
2017-Jun-15 19:59N 31°25' E 121°30'0 0.0
2017-Jun-15 19:30N 31°25' E 121°30'2 3.5
2017-Jun-15 19:00N 31°25' E 121°32'611.0
2017-Jun-15 18:30N 31°22' E 121°38'611.9
2017-Jun-15 18:00N 31°19' E 121°44'611.9
2017-Jun-15 17:30N 31°17' E 121°50'611.8
2017-Jun-15 17:00N 31°15' E 121°57'612.8
2017-Jun-15 16:30N 31°14' E 122°04'714.8
2017-Jun-15 16:00N 31°10' E 122°12'611.8
2017-Jun-15 15:30N 31°07' E 122°17'  
Track history (hours):
 
Tides and Currents Weather Stations Pressure Air Temp Water Temp Dewpoint Dewpoint Depression Visibility Wind Speed Wind Dir Waves Ship Positions

Mariner Of The Seas

Operator: Royal Caribbean Cruises Ltd

Last reported at 2017-Jun-25 15:07 UTC. Time now 2017-Jun-26 12:04 UTC.
Position N 31°08' E 123°07'.

Type: Passenger vessel. MMSI: 311493000.

Date/timePositionNaut miles runAvg speedWind from/ knotsBaromVisibWave heightAir tempDewpointWater temp
2017-Jun-25 15:07N 31°08' E 123°07'213.6
2017-Jun-25 14:57N 31°07' E 123°05'715.0
2017-Jun-25 14:30N 31°04' E 122°58'1413.8
2017-Jun-25 13:30N 31°05' E 122°42'1012.8
2017-Jun-25 12:45N 31°05' E 122°31'2 9.9
2017-Jun-25 12:31N 31°06' E 122°28'5 9.3
2017-Jun-25 12:00N 31°06' E 122°22'612.3
2017-Jun-25 11:31N 31°08' E 122°16'714.2
2017-Jun-25 11:00N 31°12' E 122°09'714.5
2017-Jun-25 10:31N 31°15' E 122°01'815.0
2017-Jun-25 10:00N 31°16' E 121°53'714.9
2017-Jun-25 09:30N 31°19' E 121°44'612.5
2017-Jun-25 09:00N 31°22' E 121°38'612.0
2017-Jun-25 08:30N 31°25' E 121°32'1 2.6
2017-Jun-25 07:58N 31°25' E 121°30'0 0.0
2017-Jun-25 07:28N 31°25' E 121°30'0 0.0
2017-Jun-25 06:52N 31°25' E 121°30'0 0.0
2017-Jun-25 06:25N 31°25' E 121°30'0 0.0
2017-Jun-25 05:58N 31°25' E 121°30'0 0.0
2017-Jun-25 05:22N 31°25' E 121°30'0 0.0
2017-Jun-25 04:58N 31°25' E 121°30'0 0.0
2017-Jun-25 04:25N 31°25' E 121°30'0 0.0
2017-Jun-25 03:55N 31°25' E 121°30'0 0.0
2017-Jun-25 03:25N 31°25' E 121°30'0 0.0
2017-Jun-25 02:55N 31°25' E 121°30'0 0.0
2017-Jun-25 02:28N 31°25' E 121°30'0 0.0
2017-Jun-25 01:58N 31°25' E 121°30'0 0.0
2017-Jun-25 01:16N 31°25' E 121°30'0 0.0
2017-Jun-25 00:58N 31°25' E 121°30'0 0.0
2017-Jun-25 00:16N 31°25' E 121°30'0 0.0
2017-Jun-24 23:58N 31°25' E 121°30'0 0.0
2017-Jun-24 23:25N 31°25' E 121°30'0 0.0
2017-Jun-24 22:55N 31°25' E 121°30'0 0.0
2017-Jun-24 22:28N 31°25' E 121°30'0 0.0
2017-Jun-24 21:55N 31°25' E 121°30'0 0.0
2017-Jun-24 21:25N 31°25' E 121°30'0 0.0
2017-Jun-24 20:55N 31°25' E 121°30'0 0.0
2017-Jun-24 20:25N 31°25' E 121°30'0 0.0
2017-Jun-24 19:55N 31°25' E 121°30'0 0.0
2017-Jun-24 19:28N 31°25' E 121°30'0 0.0
2017-Jun-24 18:58N 31°25' E 121°30'0 0.0
2017-Jun-24 18:28N 31°25' E 121°30'0 0.1
2017-Jun-24 18:01N 31°25' E 121°30'3 5.8
2017-Jun-24 17:30N 31°24' E 121°33'4 8.7
2017-Jun-24 17:00N 31°22' E 121°38'510.3
2017-Jun-24 16:30N 31°19' E 121°43'510.8
2017-Jun-24 16:01N 31°17' E 121°49'611.0
2017-Jun-24 15:30N 31°16' E 121°55'611.0
2017-Jun-24 15:00N 31°15' E 122°02'1111.1
2017-Jun-24 14:00N 31°09' E 122°13'612.5
2017-Jun-24 13:29N 31°06' E 122°19'612.2
2017-Jun-24 13:00N 31°07' E 122°26'  
2017-Jun-21 17:03N 31°05' E 122°35'111.5
2017-Jun-21 16:59N 31°05' E 122°34'612.5
2017-Jun-21 16:30N 31°05' E 122°27'612.3
2017-Jun-21 16:00N 31°06' E 122°20'714.5
2017-Jun-21 15:30N 31°09' E 122°13'714.5
2017-Jun-21 15:00N 31°14' E 122°06'713.9
2017-Jun-21 14:30N 31°15' E 121°58'1212.0
2017-Jun-21 13:31N 31°19' E 121°45'510.1
2017-Jun-21 13:00N 31°21' E 121°39'510.2
2017-Jun-21 12:30N 31°23' E 121°34'4 7.2
2017-Jun-21 12:00N 31°25' E 121°30'0 0.2
2017-Jun-21 11:28N 31°25' E 121°30'0 0.0
2017-Jun-21 10:58N 31°25' E 121°30'0 0.0
2017-Jun-21 10:25N 31°25' E 121°30'0 0.0
2017-Jun-21 09:55N 31°25' E 121°30'0 0.0
2017-Jun-21 09:28N 31°25' E 121°30'0 0.0
2017-Jun-21 08:58N 31°25' E 121°30'0 0.0
2017-Jun-21 08:28N 31°25' E 121°30'0 0.0
2017-Jun-21 07:58N 31°25' E 121°30'0 0.0
2017-Jun-21 07:28N 31°25' E 121°30'0 0.0
2017-Jun-21 06:58N 31°25' E 121°30'0 0.0
2017-Jun-21 06:28N 31°25' E 121°30'0 0.0
2017-Jun-21 05:58N 31°25' E 121°30'0 0.0
2017-Jun-21 05:22N 31°25' E 121°30'0 0.0
2017-Jun-21 04:58N 31°25' E 121°30'0 0.0
2017-Jun-21 04:28N 31°25' E 121°30'0 0.0
2017-Jun-21 03:58N 31°25' E 121°30'0 0.0
2017-Jun-21 03:25N 31°25' E 121°30'0 0.0
2017-Jun-21 02:55N 31°25' E 121°30'0 0.0
2017-Jun-21 02:28N 31°25' E 121°30'0 0.0
2017-Jun-21 01:58N 31°25' E 121°30'0 0.0
2017-Jun-21 01:28N 31°25' E 121°30'0 0.0
2017-Jun-21 00:58N 31°25' E 121°30'0 0.0
2017-Jun-21 00:28N 31°25' E 121°30'0 0.0
2017-Jun-20 23:58N 31°25' E 121°30'0 0.0
2017-Jun-20 23:28N 31°25' E 121°30'0 0.0
2017-Jun-20 22:55N 31°25' E 121°30'0 0.1
2017-Jun-20 22:30N 31°25' E 121°30'3 6.5
2017-Jun-20 22:00N 31°24' E 121°34'5 9.9
2017-Jun-20 21:30N 31°21' E 121°39'510.4
2017-Jun-20 21:00N 31°19' E 121°44'611.2
2017-Jun-20 20:30N 31°17' E 121°50'611.2
2017-Jun-20 20:00N 31°15' E 121°57'611.5
2017-Jun-20 19:30N 31°14' E 122°03'611.5
2017-Jun-20 19:00N 31°12' E 122°09'611.5
2017-Jun-20 18:30N 31°08' E 122°15'1510.4
2017-Jun-20 17:06N 31°07' E 122°32'113.2
2017-Jun-20 16:59N 31°07' E 122°33'  
2017-Jun-17 00:51N 31°42' E 125°06'5311.5
2017-Jun-16 20:14N 31°28' E 124°06'511.5
2017-Jun-16 19:46N 31°27' E 123°60'311.6
2017-Jun-16 19:29N 31°26' E 123°56'3011.5
2017-Jun-16 16:50N 31°17' E 123°22'711.2
2017-Jun-16 16:12N 31°17' E 123°13'3511.6
2017-Jun-16 13:09N 31°05' E 122°35'411.5
2017-Jun-16 12:48N 31°05' E 122°30'3 9.6
2017-Jun-16 12:30N 31°05' E 122°27'510.4
2017-Jun-16 12:01N 31°06' E 122°21'714.2
2017-Jun-16 11:30N 31°09' E 122°13'815.2
2017-Jun-16 11:00N 31°14' E 122°06'815.2
2017-Jun-16 10:31N 31°15' E 121°57'815.0
2017-Jun-16 10:00N 31°17' E 121°49'714.2
2017-Jun-16 09:31N 31°20' E 121°41'612.2
2017-Jun-16 09:00N 31°23' E 121°35'4 8.7
2017-Jun-16 08:30N 31°25' E 121°30'0 0.2
2017-Jun-16 07:56N 31°25' E 121°30'0 0.0
2017-Jun-16 07:29N 31°25' E 121°30'0 0.0
2017-Jun-16 06:59N 31°25' E 121°30'0 0.0
2017-Jun-16 06:23N 31°25' E 121°30'0 0.0
2017-Jun-16 05:56N 31°25' E 121°30'0 0.0
2017-Jun-16 05:26N 31°25' E 121°30'0 0.0
2017-Jun-16 04:59N 31°25' E 121°30'0 0.0
2017-Jun-16 04:29N 31°25' E 121°30'0 0.0
2017-Jun-16 03:59N 31°25' E 121°30'0 0.0
2017-Jun-16 03:29N 31°25' E 121°30'0 0.0
2017-Jun-16 02:56N 31°25' E 121°30'0 0.0
2017-Jun-16 02:29N 31°25' E 121°30'0 0.0
2017-Jun-16 01:59N 31°25' E 121°30'0 0.0
2017-Jun-16 01:29N 31°25' E 121°30'0 0.0
2017-Jun-16 00:59N 31°25' E 121°30'0 0.0
2017-Jun-16 00:29N 31°25' E 121°30'0 0.0
2017-Jun-15 23:59N 31°25' E 121°30'0 0.0
2017-Jun-15 23:23N 31°25' E 121°30'0 0.0
2017-Jun-15 22:59N 31°25' E 121°30'0 0.0
2017-Jun-15 22:23N 31°25' E 121°30'0 0.0
2017-Jun-15 21:59N 31°25' E 121°30'0 0.0
2017-Jun-15 21:26N 31°25' E 121°30'0 0.0
2017-Jun-15 20:59N 31°25' E 121°30'0 0.0
2017-Jun-15 20:26N 31°25' E 121°30'0 0.0
2017-Jun-15 19:59N 31°25' E 121°30'0 0.0
2017-Jun-15 19:30N 31°25' E 121°30'2 3.5
2017-Jun-15 19:00N 31°25' E 121°32'611.0
2017-Jun-15 18:30N 31°22' E 121°38'611.9
2017-Jun-15 18:00N 31°19' E 121°44'611.9
2017-Jun-15 17:30N 31°17' E 121°50'611.8
2017-Jun-15 17:00N 31°15' E 121°57'612.8
2017-Jun-15 16:30N 31°14' E 122°04'714.8
2017-Jun-15 16:00N 31°10' E 122°12'611.8
2017-Jun-15 15:30N 31°07' E 122°17'  

Dump ship's entire track history